Time;durP1;ratioP1;P1;durP2;ratioP2;P2;SDS_P1;SDS_P2;PMS_P1;PMS_P2;Temp;Humidity;BMP_temperature;BMP_pressure;BME280_temperature;BME280_humidity;BME280_pressure;Samples;Min_cycle;Max_cycle;Signal;HPM_P1;HPM_P2
2021/04/15 00:01:09;;;;;;;3.55;2.75;;;;;;;4.77;54.51;94829.50;2988510;39;20047;-86
2021/04/15 00:03:22;;;;;;;3.75;2.25;;;;;;;4.81;54.09;94834.34;3003994;39;20058;-85
2021/04/15 00:05:29;;;;;;;3.42;2.47;;;;;;;4.78;54.36;94829.41;2991301;39;20043;-73
2021/04/15 00:07:30;;;;;;;3.30;2.60;;;;;;;4.64;54.60;94829.66;2992028;39;20047;-71
2021/04/15 00:09:32;;;;;;;3.33;2.40;;;;;;;4.72;54.86;94835.06;2990875;39;20051;-72
2021/04/15 00:11:34;;;;;;;4.03;2.67;;;;;;;4.61;54.77;94835.09;2991134;39;20031;-73
2021/04/15 00:13:44;;;;;;;3.65;2.58;;;;;;;4.60;54.62;94833.41;2993548;39;20070;-72
2021/04/15 00:15:45;;;;;;;3.50;2.70;;;;;;;4.53;55.17;94840.03;2981081;39;20070;-71
2021/04/15 00:17:46;;;;;;;3.63;2.67;;;;;;;4.37;55.99;94841.22;2991216;39;20726;-72
2021/04/15 00:19:48;;;;;;;4.38;2.38;;;;;;;4.36;55.98;94831.78;2991641;39;20131;-71
2021/04/15 00:21:49;;;;;;;3.70;2.80;;;;;;;4.27;56.64;94833.31;2991072;39;20054;-72
2021/04/15 00:23:50;;;;;;;4.40;3.08;;;;;;;4.44;56.15;94832.03;2990070;39;20363;-72
2021/04/15 00:25:52;;;;;;;4.10;2.92;;;;;;;4.48;56.19;94833.44;2989711;39;20111;-72
2021/04/15 00:27:54;;;;;;;4.18;2.80;;;;;;;4.59;55.70;94829.19;2991867;39;20063;-71
2021/04/15 00:29:55;;;;;;;3.95;2.88;;;;;;;4.61;55.61;94825.53;2991519;39;20066;-72
2021/04/15 00:31:56;;;;;;;4.50;3.10;;;;;;;4.64;55.95;94830.47;2994320;39;20075;-86
2021/04/15 00:33:58;;;;;;;4.18;2.95;;;;;;;4.67;55.47;94821.63;2977293;40;20063;-86
2021/04/15 00:36:00;;;;;;;3.53;2.55;;;;;;;4.67;55.21;94822.47;2985478;39;20067;-85
2021/04/15 00:38:02;;;;;;;4.35;2.60;;;;;;;4.70;55.48;94821.38;2985934;39;20035;-84
2021/04/15 00:40:04;;;;;;;3.38;2.50;;;;;;;4.74;54.91;94822.78;2978260;39;20397;-84
2021/04/15 00:42:06;;;;;;;4.10;3.05;;;;;;;4.81;55.10;94818.75;2995259;39;20407;-85
2021/04/15 00:44:07;;;;;;;3.85;2.53;;;;;;;4.85;54.99;94820.19;2995591;39;20043;-85
2021/04/15 00:46:45;;;;;;;3.72;2.70;;;;;;;4.86;54.63;94814.06;2995762;39;20115;-86
2021/04/15 00:48:47;;;;;;;3.72;2.65;;;;;;;4.87;54.71;94818.28;2992123;39;20047;-83
2021/04/15 00:51:01;;;;;;;3.67;2.70;;;;;;;4.86;54.14;94814.06;2994116;39;20047;-87
2021/04/15 00:53:05;;;;;;;3.78;2.25;;;;;;;4.80;54.17;94817.13;2978311;39;20048;-84
2021/04/15 00:55:08;;;;;;;;;;;;;;;4.79;54.80;94815.47;2987623;39;20306;-86
2021/04/15 00:57:17;;;;;;;4.30;2.67;;;;;;;4.78;54.73;94813.00;2986573;39;20308;-85
2021/04/15 00:59:18;;;;;;;3.75;2.60;;;;;;;4.81;54.95;94818.75;2988361;39;20027;-84
2021/04/15 01:01:20;;;;;;;3.47;2.40;;;;;;;4.82;54.58;94817.84;2996710;39;20066;-83
2021/04/15 01:03:21;;;;;;;3.90;2.83;;;;;;;4.71;55.14;94802.25;2998250;39;20076;-85
2021/04/15 01:05:33;;;;;;;3.40;2.50;;;;;;;4.76;54.44;94809.72;2997338;39;20031;-86
2021/04/15 01:07:34;;;;;;;2.88;2.20;;;;;;;4.70;54.38;94811.00;2986579;39;20079;-86
2021/04/15 01:09:35;;;;;;;3.72;2.30;;;;;;;4.69;54.86;94809.38;2996637;39;20119;-85
2021/04/15 01:12:00;;;;;;;2.97;2.33;;;;;;;4.76;54.60;94814.91;2995134;39;20080;-87
2021/04/15 01:14:07;;;;;;;;;;;;;;;4.74;54.84;94819.38;2975712;39;20056;-85
2021/04/15 01:16:26;;;;;;;3.50;2.78;;;;;;;4.77;55.08;94811.34;2998222;39;19935;-85
2021/04/15 01:18:38;;;;;;;3.15;2.60;;;;;;;4.81;54.78;94818.75;2996021;39;20066;-84
2021/04/15 01:21:17;;;;;;;3.67;2.97;;;;;;;4.71;55.42;94810.91;2986481;39;20055;-84
2021/04/15 01:23:36;;;;;;;4.68;2.83;;;;;;;4.65;55.27;94808.78;2978535;40;20325;-86
2021/04/15 01:26:03;;;;;;;3.33;2.38;;;;;;;4.64;55.69;94808.88;2982077;39;20051;-84
2021/04/15 01:28:23;;;;;;;3.25;2.60;;;;;;;4.63;55.23;94805.47;2993813;39;20100;-85
2021/04/15 01:30:51;;;;;;;4.00;2.95;;;;;;;4.66;55.70;94814.78;2996701;39;20028;-85
2021/04/15 01:33:13;;;;;;;3.88;2.83;;;;;;;4.65;55.60;94813.16;2998244;39;20070;-85
2021/04/15 01:35:19;;;;;;;3.63;2.72;;;;;;;4.65;55.56;94819.16;2979662;40;20040;-85
2021/04/15 01:37:48;;;;;;;4.00;2.70;;;;;;;4.53;55.74;94809.72;2974892;40;20060;-84
2021/04/15 01:39:54;;;;;;;3.50;2.65;;;;;;;4.61;55.02;94807.34;2979108;39;20059;-85
2021/04/15 01:42:05;;;;;;;3.92;3.03;;;;;;;4.49;55.74;94809.13;2986513;39;20064;-85
2021/04/15 01:44:11;;;;;;;3.47;2.72;;;;;;;4.55;55.60;94813.03;2990872;39;20437;-86
2021/04/15 01:46:15;;;;;;;3.50;2.95;;;;;;;4.52;55.34;94802.91;2989721;39;20061;-85
2021/04/15 01:48:20;;;;;;;3.53;2.65;;;;;;;4.51;55.38;94807.25;2987040;39;20080;-85
2021/04/15 01:50:53;;;;;;;3.75;2.80;;;;;;;4.51;55.19;94796.88;2994470;39;20028;-84
2021/04/15 01:52:58;;;;;;;3.13;2.13;;;;;;;4.46;55.23;94798.19;2987867;39;20109;-83
2021/04/15 01:55:09;;;;;;;3.63;2.60;;;;;;;4.40;55.42;94815.03;2986827;39;20027;-85
2021/04/15 01:57:31;;;;;;;3.17;2.40;;;;;;;4.45;55.44;94801.72;2996743;39;20111;-85
2021/04/15 01:59:58;;;;;;;3.00;2.30;;;;;;;4.47;55.16;94794.63;2979514;39;20044;-85
2021/04/15 02:02:16;;;;;;;3.55;2.35;;;;;;;4.51;55.22;94796.03;2985021;39;20418;-84
2021/04/15 02:04:21;;;;;;;3.63;2.30;;;;;;;4.56;54.77;94793.09;2970546;39;20181;-84
2021/04/15 02:06:26;;;;;;;2.40;2.03;;;;;;;4.47;54.83;94805.84;2988615;39;20043;-85
2021/04/15 02:08:34;;;;;;;3.85;2.03;;;;;;;4.48;55.09;94802.31;2985312;39;20051;-71
2021/04/15 02:10:36;;;;;;;3.60;2.25;;;;;;;4.49;54.79;94795.34;2982215;39;20147;-71
2021/04/15 02:12:41;;;;;;;3.47;2.67;;;;;;;4.49;54.80;94803.94;2982745;39;20444;-71
2021/04/15 02:14:46;;;;;;;3.67;2.80;;;;;;;4.51;55.02;94809.03;2980829;39;20466;-72
2021/04/15 02:16:50;;;;;;;3.72;2.63;;;;;;;4.49;55.44;94809.13;2983731;39;20065;-72
2021/04/15 02:18:58;;;;;;;2.83;2.38;;;;;;;4.50;55.44;94809.97;2982498;39;20577;-70
2021/04/15 02:21:04;;;;;;;4.15;2.30;;;;;;;4.44;55.49;94810.44;2979522;39;20060;-72
2021/04/15 02:23:24;;;;;;;3.38;2.28;;;;;;;4.38;55.57;94819.50;2980976;39;20424;-71
2021/04/15 02:25:32;;;;;;;2.92;2.10;;;;;;;4.42;55.91;94820.13;2985023;39;20120;-72
2021/04/15 02:27:39;;;;;;;3.75;2.58;;;;;;;4.44;56.15;94826.84;2978840;39;20261;-72
2021/04/15 02:29:42;;;;;;;3.05;2.28;;;;;;;4.47;55.90;94821.41;2990291;39;20073;-71
2021/04/15 02:32:08;;;;;;;3.13;2.33;;;;;;;4.43;55.46;94819.16;2992253;39;20062;-72
2021/04/15 02:34:13;;;;;;;4.25;2.65;;;;;;;4.46;56.05;94824.13;2982283;39;20059;-73
2021/04/15 02:36:16;;;;;;;2.85;2.28;;;;;;;4.44;55.93;94816.44;2983152;39;20093;-71
2021/04/15 02:38:22;;;;;;;3.38;2.40;;;;;;;4.49;55.55;94818.69;2992973;39;20050;-85
2021/04/15 02:40:26;;;;;;;3.92;2.90;;;;;;;4.56;55.61;94824.22;2979695;39;20087;-84
2021/04/15 02:42:30;;;;;;;3.40;2.45;;;;;;;4.54;55.47;94826.97;2991950;39;20060;-86
2021/04/15 02:44:35;;;;;;;;;;;;;;;4.64;55.50;94820.09;2982884;39;20063;-72
2021/04/15 02:46:40;;;;;;;;;;;;;;;4.62;55.03;94829.75;2983469;39;19951;-72
2021/04/15 02:48:41;;;;;;;;;;;;;;;4.53;55.52;94827.88;2978316;39;19928;-72
2021/04/15 02:50:43;;;;;;;3.50;2.67;;;;;;;4.48;55.30;94832.63;2979317;39;20086;-73
2021/04/15 02:52:48;;;;;;;4.20;2.85;;;;;;;4.54;54.93;94826.09;2979625;39;20459;-71
2021/04/15 02:54:52;;;;;;;3.60;2.72;;;;;;;4.59;55.52;94824.00;2975889;39;20826;-72
2021/04/15 02:57:12;;;;;;;;;;;;;;;4.66;55.51;94827.75;2980433;39;20100;-74
2021/04/15 02:59:27;;;;;;;4.18;3.05;;;;;;;4.74;54.89;94822.78;2991016;39;19991;-71
2021/04/15 03:01:33;;;;;;;3.95;2.83;;;;;;;4.71;54.72;94823.88;2976625;39;20472;-71
2021/04/15 03:03:36;;;;;;;4.78;3.03;;;;;;;4.73;55.16;94831.50;2978730;39;20080;-72
2021/04/15 03:05:50;;;;;;;3.85;2.90;;;;;;;4.73;54.71;94826.31;2990595;39;20450;-72
2021/04/15 03:07:53;;;;;;;4.38;2.90;;;;;;;4.73;55.05;94834.09;2981592;39;20078;-71
2021/04/15 03:09:55;;;;;;;3.75;2.80;;;;;;;4.72;55.17;94832.47;2976878;39;20072;-72
2021/04/15 03:12:05;;;;;;;4.55;2.83;;;;;;;4.78;55.10;94829.41;2980820;39;20049;-72
2021/04/15 03:14:11;;;;;;;3.83;2.40;;;;;;;4.76;54.72;94830.47;2991158;39;20380;-71
2021/04/15 03:16:14;;;;;;;3.88;2.75;;;;;;;4.70;55.05;94826.56;2977414;39;20116;-71
2021/04/15 03:18:23;;;;;;;4.43;2.90;;;;;;;4.59;55.76;94830.00;2982226;39;20047;-72
2021/04/15 03:20:28;;;;;;;4.07;2.90;;;;;;;4.60;55.52;94831.66;2983105;39;20051;-72
2021/04/15 03:22:45;;;;;;;4.55;3.15;;;;;;;4.34;56.28;94827.66;2992075;39;20088;-72
2021/04/15 03:24:48;;;;;;;6.15;4.57;;;;;;;4.24;57.80;94841.34;2975567;39;20453;-70
2021/04/15 03:27:18;;;;;;;10.30;6.80;;;;;;;3.75;61.02;94844.22;2974918;39;20448;-71
2021/04/15 03:29:32;;;;;;;7.55;5.50;;;;;;;3.42;63.05;94843.13;2983226;39;20051;-71
2021/04/15 03:31:42;;;;;;;7.80;5.85;;;;;;;3.28;64.16;94855.34;2974553;39;20055;-71
2021/04/15 03:33:56;;;;;;;9.65;6.25;;;;;;;3.36;64.41;94848.78;2984827;39;20074;-73
2021/04/15 03:36:20;;;;;;;8.15;5.75;;;;;;;3.18;64.48;94845.75;2982807;39;20119;-72
2021/04/15 03:39:08;;;;;;;6.88;4.65;;;;;;;2.96;66.35;94843.88;2982323;39;20476;-72
2021/04/15 03:41:12;;;;;;;9.90;5.20;;;;;;;3.08;66.05;94843.00;2979184;39;20055;-72
2021/04/15 03:43:23;;;;;;;7.18;5.25;;;;;;;3.04;66.14;94844.97;2979881;39;20055;-84
2021/04/15 03:45:49;;;;;;;7.97;5.68;;;;;;;2.83;67.00;94841.34;2992639;39;20059;-88
2021/04/15 03:47:54;;;;;;;11.23;6.05;;;;;;;3.04;66.75;94847.56;2982223;39;20102;-86
2021/04/15 03:50:02;;;;;;;8.38;5.43;;;;;;;2.90;67.77;94839.13;2991119;39;20039;-86
2021/04/15 03:52:08;;;;;;;7.72;5.22;;;;;;;2.86;67.68;94839.38;2986725;39;20039;-85
2021/04/15 03:54:14;;;;;;;8.70;6.13;;;;;;;3.01;67.40;94831.44;2996687;39;20139;-84
2021/04/15 03:56:27;;;;;;;12.93;6.88;;;;;;;3.19;66.98;94837.88;2981796;39;20044;-83
2021/04/15 03:58:34;;;;;;;9.68;6.28;;;;;;;3.13;67.04;94840.09;3005576;39;20042;-86
2021/04/15 04:00:40;;;;;;;10.52;7.45;;;;;;;2.83;68.35;94847.31;2978828;40;20326;-87
2021/04/15 04:02:46;;;;;;;13.68;7.43;;;;;;;2.89;68.03;94835.72;2978877;39;20056;-85
2021/04/15 04:04:51;;;;;;;12.20;7.20;;;;;;;2.98;68.43;94837.66;2982375;39;20396;-86
2021/04/15 04:06:54;;;;;;;11.10;7.43;;;;;;;3.15;67.99;94841.63;2981613;39;20136;-86
2021/04/15 04:09:00;;;;;;;12.00;7.03;;;;;;;3.28;66.95;94842.38;2993234;39;20055;-73
2021/04/15 04:11:01;;;;;;;11.63;6.90;;;;;;;3.07;68.39;94843.94;2987689;39;20114;-72
2021/04/15 04:13:24;;;;;;;10.18;7.63;;;;;;;3.08;68.16;94846.41;2982010;39;20063;-72
2021/04/15 04:15:28;;;;;;;14.98;7.60;;;;;;;3.04;68.75;94844.97;2975416;39;20054;-73
2021/04/15 04:17:36;;;;;;;;;;;;;;;3.04;69.07;94844.16;2980860;39;20060;-73
2021/04/15 04:19:46;;;;;;;9.88;6.88;;;;;;;3.12;68.13;94843.59;2967712;39;19999;-73
2021/04/15 04:21:50;;;;;;;13.02;6.35;;;;;;;3.05;68.79;94840.63;2985498;39;20055;-72
2021/04/15 04:24:02;;;;;;;12.38;6.32;;;;;;;3.08;68.29;94843.00;2991728;39;20054;-71
2021/04/15 04:26:31;;;;;;;13.18;7.38;;;;;;;3.18;68.04;94841.38;2973617;39;20054;-72
2021/04/15 04:28:44;;;;;;;11.75;7.25;;;;;;;3.26;67.84;94844.25;2976344;39;20391;-70
2021/04/15 04:30:55;;;;;;;9.73;6.85;;;;;;;3.12;68.08;94852.22;2978335;39;20402;-87
2021/04/15 04:32:59;;;;;;;10.60;6.45;;;;;;;3.02;68.78;94858.97;2979463;40;20052;-87
2021/04/15 04:35:02;;;;;;;11.85;6.90;;;;;;;2.86;69.35;94857.47;2979629;40;20035;-89
2021/04/15 04:37:05;;;;;;;12.55;6.95;;;;;;;2.94;69.35;94853.50;3004680;39;20402;-88
2021/04/15 04:39:07;;;;;;;8.02;5.80;;;;;;;3.17;68.04;94855.28;2989942;39;20079;-85
2021/04/15 04:41:18;;;;;;;8.07;5.88;;;;;;;3.41;67.37;94857.03;2999259;39;20054;-88
2021/04/15 04:43:26;;;;;;;8.20;5.97;;;;;;;3.62;66.50;94850.28;2987985;39;20102;-85
2021/04/15 04:45:28;;;;;;;7.07;5.40;;;;;;;3.83;65.58;94850.47;2988754;39;20032;-85
2021/04/15 04:47:44;;;;;;;7.20;5.53;;;;;;;3.93;64.62;94847.19;2995288;39;20416;-86
2021/04/15 04:49:52;;;;;;;12.70;6.20;;;;;;;4.05;64.59;94835.91;2988685;39;20063;-88
2021/04/15 04:52:06;;;;;;;7.40;5.78;;;;;;;4.01;64.26;94832.69;2994091;39;20063;-86
2021/04/15 04:54:07;;;;;;;7.72;5.18;;;;;;;4.14;63.35;94835.19;2992190;39;20043;-86
2021/04/15 04:56:08;;;;;;;7.03;5.32;;;;;;;4.16;62.99;94841.09;2991383;39;20040;-88
2021/04/15 04:58:15;;;;;;;8.25;5.57;;;;;;;4.30;62.62;94848.66;2997969;39;20047;-86
2021/04/15 05:00:21;;;;;;;6.72;5.13;;;;;;;4.37;61.66;94841.22;2990613;39;20028;-88
2021/04/15 05:02:22;;;;;;;8.20;6.03;;;;;;;4.27;61.88;94845.47;2990464;39;20396;-86
2021/04/15 05:04:25;;;;;;;9.40;6.13;;;;;;;4.31;62.55;94850.28;2999371;39;20410;-86
2021/04/15 05:06:29;;;;;;;8.13;6.22;;;;;;;4.36;61.95;94857.72;2990925;39;20058;-86
2021/04/15 05:08:54;;;;;;;8.48;6.03;;;;;;;4.36;61.50;94852.53;2995810;39;20313;-86
2021/04/15 05:10:56;;;;;;;8.93;6.50;;;;;;;4.12;62.32;94862.19;2995517;39;20098;-85
2021/04/15 05:13:11;;;;;;;11.07;6.93;;;;;;;3.63;66.01;94861.47;2992806;39;20364;-85
2021/04/15 05:15:12;;;;;;;10.75;7.43;;;;;;;3.38;66.57;94871.03;2983909;39;20038;-84
2021/04/15 05:17:28;;;;;;;10.82;7.32;;;;;;;3.17;67.87;94868.22;2979041;40;20059;-85
2021/04/15 05:19:34;;;;;;;11.93;7.68;;;;;;;3.11;68.40;94871.25;2997579;39;20026;-86
2021/04/15 05:21:36;;;;;;;11.48;7.90;;;;;;;3.06;68.49;94863.81;2987897;39;20050;-88
2021/04/15 05:23:55;;;;;;;9.48;6.75;;;;;;;2.90;68.31;94868.41;2989345;39;20059;-69
2021/04/15 05:26:08;;;;;;;11.80;6.82;;;;;;;3.00;68.67;94866.03;2991607;39;20058;-72
2021/04/15 05:28:13;;;;;;;8.63;5.82;;;;;;;2.83;68.89;94869.78;2976285;39;20052;-72
2021/04/15 05:30:35;;;;;;;10.93;7.78;;;;;;;2.96;69.06;94865.41;2987086;39;20058;-86
2021/04/15 05:32:36;;;;;;;16.08;7.97;;;;;;;3.14;68.44;94867.63;2979007;39;20064;-88
2021/04/15 05:34:49;;;;;;;9.63;6.63;;;;;;;3.42;67.92;94869.88;2985494;39;20171;-71
2021/04/15 05:36:54;;;;;;;11.35;8.07;;;;;;;3.53;66.80;94850.13;2981159;39;20348;-72
2021/04/15 05:38:58;;;;;;;12.90;7.60;;;;;;;3.46;67.09;94854.94;2978575;39;20039;-72
2021/04/15 05:41:02;;;;;;;9.82;6.65;;;;;;;3.59;66.62;94858.28;2985471;39;20720;-73
2021/04/15 05:43:04;;;;;;;9.48;6.28;;;;;;;3.81;65.37;94857.53;2979475;39;20075;-73
2021/04/15 05:45:17;;;;;;;14.75;8.07;;;;;;;3.73;65.68;94865.03;2992553;39;20039;-74
2021/04/15 05:47:26;;;;;;;12.23;7.80;;;;;;;3.50;65.93;94869.31;2991720;39;20054;-73
2021/04/15 05:49:34;;;;;;;10.25;6.63;;;;;;;3.64;65.17;94866.53;2982727;39;20142;-73
2021/04/15 05:51:44;;;;;;;9.10;6.07;;;;;;;3.83;63.67;94875.53;2992385;39;20050;-74
2021/04/15 05:53:49;;;;;;;7.95;5.55;;;;;;;4.00;62.77;94882.91;2982449;39;20165;-73
2021/04/15 05:56:15;;;;;;;8.50;5.63;;;;;;;4.14;62.50;94870.69;2981312;39;20110;-73
2021/04/15 05:58:23;;;;;;;10.48;6.72;;;;;;;4.31;62.70;94865.84;2972956;39;20064;-73
2021/04/15 06:00:32;;;;;;;8.35;5.30;;;;;;;4.45;61.96;94869.16;2982971;39;20059;-73
2021/04/15 06:02:59;;;;;;;8.02;5.03;;;;;;;4.18;62.65;94879.88;2981981;39;20048;-72
2021/04/15 06:05:16;;;;;;;8.45;6.03;;;;;;;4.19;62.83;94878.91;2983477;39;20051;-74
2021/04/15 06:07:21;;;;;;;9.63;6.13;;;;;;;4.29;63.15;94874.69;2982958;39;20087;-73
2021/04/15 06:09:22;;;;;;;8.63;6.80;;;;;;;4.16;63.89;94879.16;2981700;39;20051;-72
2021/04/15 06:11:46;;;;;;;8.20;6.07;;;;;;;4.35;62.80;94861.25;2979740;39;20093;-73
2021/04/15 06:13:51;;;;;;;7.55;5.95;;;;;;;4.50;62.29;94867.06;2979746;39;20070;-72
2021/04/15 06:16:01;;;;;;;9.35;6.10;;;;;;;4.62;61.89;94863.50;2982756;39;20508;-72
2021/04/15 06:18:24;;;;;;;8.38;5.88;;;;;;;4.61;61.49;94850.66;2976119;39;20063;-73
2021/04/15 06:20:34;;;;;;;7.90;5.43;;;;;;;4.59;61.34;94866.34;2982994;39;20117;-72
2021/04/15 06:22:41;;;;;;;7.55;5.72;;;;;;;4.69;61.42;94863.88;2973450;39;20140;-73
2021/04/15 06:24:44;;;;;;;8.10;5.53;;;;;;;4.70;60.66;94862.91;2988265;39;20063;-73
2021/04/15 06:26:53;;;;;;;7.38;5.47;;;;;;;4.74;61.30;94874.69;2989504;39;20396;-74
2021/04/15 06:28:57;;;;;;;8.43;6.13;;;;;;;4.79;60.86;94869.97;2980939;39;20048;-72
2021/04/15 06:31:01;;;;;;;12.57;6.30;;;;;;;4.81;60.74;94860.28;2978693;39;20055;-74
2021/04/15 06:33:10;;;;;;;10.60;6.20;;;;;;;4.93;60.08;94869.72;2992904;39;20070;-74
2021/04/15 06:35:19;;;;;;;7.25;5.93;;;;;;;5.14;59.72;94868.97;2981766;39;20079;-75
2021/04/15 06:37:30;;;;;;;8.95;6.00;;;;;;;5.11;58.98;94864.84;2974730;40;20085;-74
2021/04/15 06:39:48;;;;;;;11.40;5.88;;;;;;;5.24;59.08;94864.69;2987142;39;20066;-73
2021/04/15 06:42:04;;;;;;;8.25;5.82;;;;;;;5.25;58.74;94868.13;2976188;39;20048;-72
2021/04/15 06:44:23;;;;;;;9.10;5.43;;;;;;;5.40;58.10;94856.50;2990644;39;20062;-73
2021/04/15 06:46:31;;;;;;;8.63;6.03;;;;;;;5.37;57.76;94855.91;2979917;39;20119;-73
2021/04/15 06:49:11;;;;;;;7.78;5.60;;;;;;;5.44;58.67;94864.88;2983992;39;20055;-73
2021/04/15 06:51:39;;;;;;;8.68;5.90;;;;;;;5.44;58.30;94862.25;2951572;40;20572;-74
2021/04/15 06:54:19;;;;;;;7.10;5.05;;;;;;;5.39;57.22;94861.81;2948183;40;20093;-73
2021/04/15 06:56:24;;;;;;;9.80;5.63;;;;;;;5.20;58.06;94871.06;2955129;39;20087;-73
2021/04/15 06:58:37;;;;;;;8.15;5.82;;;;;;;5.27;57.48;94872.25;2995325;39;20149;-74
2021/04/15 07:01:15;;;;;;;7.13;5.28;;;;;;;5.23;57.28;94865.66;2983027;39;20067;-73
2021/04/15 07:03:41;;;;;;;7.63;5.82;;;;;;;5.38;56.34;94866.19;2978071;39;20056;-72
2021/04/15 07:06:00;;;;;;;8.80;5.80;;;;;;;5.38;56.77;94875.75;2990237;39;20092;-74
2021/04/15 07:08:18;;;;;;;9.73;6.18;;;;;;;5.36;56.46;94880.25;2976474;39;20577;-75
2021/04/15 07:10:32;;;;;;;9.68;6.18;;;;;;;5.16;57.23;94880.06;2985179;39;20644;-74
2021/04/15 07:13:14;;;;;;;11.43;7.25;;;;;;;5.16;56.88;94881.84;2993266;39;20047;-73
2021/04/15 07:15:42;;;;;;;11.23;6.68;;;;;;;5.15;57.39;94881.00;2987517;39;20075;-73
2021/04/15 07:18:07;;;;;;;11.23;6.70;;;;;;;4.91;58.33;94888.97;2967177;39;20432;-71
2021/04/15 07:20:37;;;;;;;10.70;7.20;;;;;;;4.90;58.20;94893.34;2975933;39;20403;-71
2021/04/15 07:22:41;;;;;;;10.02;7.05;;;;;;;5.16;57.66;94885.25;2978982;39;20063;-75
2021/04/15 07:25:00;;;;;;;14.70;7.55;;;;;;;4.95;58.22;94894.72;2991490;39;20061;-74
2021/04/15 07:27:20;;;;;;;15.18;8.77;;;;;;;4.39;59.65;94893.81;2965437;39;20118;-74
2021/04/15 07:29:40;;;;;;;13.15;6.88;;;;;;;4.64;59.46;94886.72;2978930;39;20048;-73
2021/04/15 07:32:07;;;;;;;9.98;5.95;;;;;;;4.68;58.82;94894.16;2988254;39;20411;-72
2021/04/15 07:34:36;;;;;;;8.57;6.32;;;;;;;4.86;58.36;94891.94;2986867;39;20407;-76
2021/04/15 07:36:58;;;;;;;11.48;6.85;;;;;;;4.65;58.45;94894.41;2991745;39;20071;-74
2021/04/15 07:39:19;;;;;;;11.15;7.00;;;;;;;4.56;58.17;94900.31;2985693;39;20431;-74
2021/04/15 07:41:49;;;;;;;11.38;7.38;;;;;;;4.68;58.67;94894.16;2988990;39;20047;-73
2021/04/15 07:44:05;;;;;;;9.82;6.78;;;;;;;4.77;58.23;94890.03;2969534;39;20054;-73
2021/04/15 07:46:39;;;;;;;11.63;6.68;;;;;;;4.93;58.08;94889.66;2975525;39;20064;-76
2021/04/15 07:48:48;;;;;;;10.02;7.15;;;;;;;4.84;58.24;94903.34;2966235;39;20096;-73
2021/04/15 07:50:55;;;;;;;14.88;7.85;;;;;;;4.96;57.98;94904.19;2988873;39;20088;-74
2021/04/15 07:53:24;;;;;;;10.95;7.43;;;;;;;5.01;57.42;94899.44;2978058;39;20051;-73
2021/04/15 07:55:50;;;;;;;13.68;7.30;;;;;;;4.84;57.45;94905.94;2988937;39;20308;-72
2021/04/15 07:58:06;;;;;;;10.65;7.75;;;;;;;4.86;57.29;94898.88;2989363;39;20076;-73
2021/04/15 08:00:29;;;;;;;11.30;6.75;;;;;;;4.95;57.43;94897.31;2992805;39;20416;-72
2021/04/15 08:02:33;;;;;;;10.13;7.18;;;;;;;5.02;57.26;94903.69;2983214;39;20059;-72
2021/04/15 08:05:12;;;;;;;8.93;6.88;;;;;;;4.84;57.55;94911.97;2987307;39;20084;-74
2021/04/15 08:07:43;;;;;;;9.40;6.57;;;;;;;4.84;57.16;94905.94;2995795;39;20086;-73
2021/04/15 08:09:44;;;;;;;12.52;7.18;;;;;;;4.87;57.68;94906.53;2989042;39;20071;-72
2021/04/15 08:11:46;;;;;;;14.43;6.68;;;;;;;4.81;57.68;94907.00;2988394;39;20054;-72
2021/04/15 08:14:19;;;;;;;9.43;6.75;;;;;;;5.00;57.09;94915.97;2991064;39;20059;-72
2021/04/15 08:16:30;;;;;;;11.35;8.05;;;;;;;4.72;58.01;94905.13;2978708;39;20421;-75
2021/04/15 08:18:42;;;;;;;11.25;6.55;;;;;;;4.79;57.09;94901.13;2985249;39;20066;-88
2021/04/15 08:20:55;;;;;;;11.27;7.68;;;;;;;4.62;57.49;94901.59;2983568;39;20506;-88
2021/04/15 08:23:24;;;;;;;9.80;7.45;;;;;;;4.76;57.67;94903.97;2987923;39;20047;-87
2021/04/15 08:25:48;;;;;;;9.70;7.03;;;;;;;4.78;57.54;94916.81;2988145;39;20036;-86
2021/04/15 08:28:11;;;;;;;12.70;7.68;;;;;;;4.95;57.43;94910.31;2997096;39;20328;-87
2021/04/15 08:30:12;;;;;;;13.20;7.85;;;;;;;5.13;56.92;94901.09;3004034;39;20059;-88
2021/04/15 08:32:37;;;;;;;16.67;8.70;;;;;;;4.76;58.11;94914.34;2987692;39;20047;-87
2021/04/15 08:34:58;;;;;;;16.13;8.20;;;;;;;4.13;59.67;94907.91;2987407;39;20058;-85
2021/04/15 08:37:05;;;;;;;11.45;7.68;;;;;;;3.78;61.01;94916.53;2997486;39;20031;-86
2021/04/15 08:39:25;;;;;;;12.15;8.25;;;;;;;3.85;61.14;94907.34;2996779;39;20043;-87
2021/04/15 08:41:48;;;;;;;13.05;8.95;;;;;;;3.88;61.86;94912.31;2988098;39;20419;-88
2021/04/15 08:44:25;;;;;;;14.57;9.18;;;;;;;4.05;61.68;94909.31;2988163;39;20132;-89
2021/04/15 08:46:44;;;;;;;26.15;12.15;;;;;;;3.93;62.01;94907.63;2982313;39;20339;-87
2021/04/15 08:48:54;;;;;;;16.77;9.48;;;;;;;4.04;61.78;94909.41;2978882;39;20145;-87
2021/04/15 08:51:39;;;;;;;14.90;9.70;;;;;;;4.23;62.08;94901.09;2981978;39;20044;-87
2021/04/15 08:53:50;;;;;;;16.50;9.55;;;;;;;4.50;60.88;94899.00;2990486;39;20506;-87
2021/04/15 08:55:59;;;;;;;16.52;10.88;;;;;;;4.24;60.74;94908.75;2991844;39;20060;-88
2021/04/15 08:58:22;;;;;;;14.35;9.48;;;;;;;4.27;61.13;94902.50;2986917;39;20764;-88
2021/04/15 09:00:30;;;;;;;12.75;8.20;;;;;;;4.33;60.96;94912.44;2997119;39;20076;-88
2021/04/15 09:02:42;;;;;;;13.88;8.85;;;;;;;4.37;61.32;94907.84;2997380;39;20175;-85
2021/04/15 09:05:02;;;;;;;18.25;9.63;;;;;;;4.51;61.01;94911.00;2993677;39;20079;-88
2021/04/15 09:10:37;;;;;;;12.43;7.85;;;;;;;3.96;61.18;94906.56;2993366;39;20130;-73
2021/04/15 09:12:57;;;;;;;11.30;7.32;;;;;;;4.22;59.92;94907.22;2944293;40;20065;-74
2021/04/15 09:15:17;;;;;;;12.50;8.40;;;;;;;4.07;60.02;94909.19;2987285;39;20172;-74
2021/04/15 09:17:33;;;;;;;12.88;9.10;;;;;;;3.92;60.77;94907.75;2983202;39;20055;-73
2021/04/15 09:19:58;;;;;;;12.80;8.02;;;;;;;4.08;60.43;94896.09;2992223;39;20094;-73
2021/04/15 09:22:23;;;;;;;15.68;9.00;;;;;;;4.02;60.18;94900.91;2982096;39;20403;-74
2021/04/15 09:24:30;;;;;;;16.42;11.05;;;;;;;3.78;61.42;94899.19;2988078;39;20070;-73
2021/04/15 09:27:14;;;;;;;19.25;11.18;;;;;;;3.89;61.56;94904.44;2983285;39;20094;-72
2021/04/15 09:29:28;;;;;;;21.80;10.40;;;;;;;4.16;61.16;94886.94;2978194;39;20091;-73
2021/04/15 09:31:49;;;;;;;15.50;10.32;;;;;;;4.44;60.76;94888.28;2983222;39;20468;-73
2021/04/15 09:34:06;;;;;;;17.20;10.73;;;;;;;4.43;60.53;94892.63;2974583;39;20409;-74
2021/04/15 09:36:42;;;;;;;15.45;10.75;;;;;;;4.46;60.32;94882.00;2983936;39;20441;-86
2021/04/15 09:38:59;;;;;;;17.88;11.27;;;;;;;4.10;61.08;94888.22;2951058;40;20057;-73
2021/04/15 09:41:25;;;;;;;19.75;11.57;;;;;;;4.11;60.68;94892.47;2980143;39;20059;-72
2021/04/15 09:43:38;;;;;;;14.27;8.80;;;;;;;4.04;60.82;94880.91;2992044;39;20046;-72
2021/04/15 09:45:44;;;;;;;16.00;10.00;;;;;;;4.13;60.96;94874.19;2992666;39;20356;-87
2021/04/15 09:47:53;;;;;;;14.65;8.23;;;;;;;4.14;60.53;94884.47;2992535;39;20428;-86
2021/04/15 09:50:22;;;;;;;14.68;9.15;;;;;;;4.19;60.11;94868.53;3003513;39;20028;-86
2021/04/15 09:52:58;;;;;;;13.55;8.65;;;;;;;4.40;59.88;94866.09;2991845;39;20039;-85
2021/04/15 09:55:36;;;;;;;12.15;7.70;;;;;;;4.27;59.87;94866.19;2989993;39;20244;-88
2021/04/15 09:57:44;;;;;;;15.05;9.75;;;;;;;4.09;60.52;94863.25;2990623;39;20036;-91
2021/04/15 09:59:56;;;;;;;15.32;9.45;;;;;;;4.30;60.36;94871.16;2981293;39;20028;-87
2021/04/15 10:02:07;;;;;;;12.20;8.55;;;;;;;4.60;58.64;94862.78;2980610;39;20110;-88
2021/04/15 10:04:18;;;;;;;11.40;8.20;;;;;;;4.81;58.73;94865.47;2988031;39;20056;-86
2021/04/15 10:06:28;;;;;;;14.77;8.70;;;;;;;4.41;59.64;94860.81;2978896;39;20062;-88
2021/04/15 10:08:41;;;;;;;11.13;7.70;;;;;;;4.38;60.17;94862.78;2981240;40;20330;-86
2021/04/15 10:11:01;;;;;;;14.02;7.53;;;;;;;4.45;59.20;94857.03;2984325;39;20044;-88
2021/04/15 10:13:02;;;;;;;15.30;8.10;;;;;;;4.54;59.27;94865.88;2973735;39;20398;-86
2021/04/15 10:15:14;;;;;;;13.00;8.45;;;;;;;4.43;59.15;94861.50;3006062;39;20151;-88
2021/04/15 10:17:21;;;;;;;12.68;7.75;;;;;;;4.32;59.24;94869.25;2971517;40;20091;-86
2021/04/15 10:19:44;;;;;;;14.90;7.88;;;;;;;4.29;59.49;94854.75;2995070;39;20035;-90
2021/04/15 10:21:57;;;;;;;11.55;7.28;;;;;;;4.64;59.45;94858.19;2997602;39;20115;-87
2021/04/15 10:24:13;;;;;;;12.45;8.60;;;;;;;4.41;58.67;94865.13;2986989;39;20050;-87
2021/04/15 10:26:28;;;;;;;16.33;9.05;;;;;;;4.56;57.93;94857.94;2990661;39;20039;-88
2021/04/15 10:29:07;;;;;;;9.48;6.90;;;;;;;4.93;57.10;94853.31;2988825;39;20024;-87
2021/04/15 10:31:30;;;;;;;10.77;7.00;;;;;;;5.01;57.01;94857.91;2999915;39;20031;-85
2021/04/15 10:33:50;;;;;;;9.35;7.40;;;;;;;5.26;56.40;94856.78;2997535;39;20035;-87